createdAt,value
2018-10-01T00:02:21.419Z,4.40
2018-10-01T00:05:33.457Z,3.62
2018-10-01T00:08:44.792Z,3.90
2018-10-01T00:11:56.701Z,4.92
2018-10-01T00:15:08.406Z,5.20
2018-10-01T00:18:20.341Z,4.25
2018-10-01T00:21:36.981Z,5.10
2018-10-01T00:24:47.966Z,3.52
2018-10-01T00:27:59.588Z,3.75
2018-10-01T00:31:10.869Z,4.35
2018-10-01T00:34:21.945Z,4.50
2018-10-01T00:37:33.690Z,4.55
2018-10-01T00:40:45.752Z,4.40
2018-10-01T00:43:57.345Z,5.45
2018-10-01T00:47:08.436Z,4.55
2018-10-01T00:50:20.126Z,3.60
2018-10-01T00:53:32.006Z,4.95
2018-10-01T00:56:43.194Z,4.08
2018-10-01T00:59:54.827Z,4.95
2018-10-01T01:03:06.143Z,4.67
2018-10-01T01:06:17.592Z,3.77
2018-10-01T01:09:29.181Z,4.20
2018-10-01T01:12:41.058Z,4.42
2018-10-01T01:15:52.652Z,6.03
2018-10-01T01:19:04.080Z,5.50
2018-10-01T01:22:15.498Z,4.42
2018-10-01T01:25:26.715Z,5.47
2018-10-01T01:28:38.239Z,3.35
2018-10-01T01:31:49.609Z,5.20
2018-10-01T01:35:00.659Z,5.17
2018-10-01T01:38:12.916Z,4.80
2018-10-01T01:41:24.810Z,7.25
2018-10-01T01:44:36.063Z,4.00
2018-10-01T01:47:47.935Z,4.15
2018-10-01T01:50:59.758Z,3.95
2018-10-01T01:54:10.943Z,3.98
2018-10-01T01:57:22.055Z,5.08
2018-10-01T02:00:33.160Z,4.00
2018-10-01T02:03:44.528Z,3.67
2018-10-01T02:06:55.902Z,6.03
2018-10-01T02:10:07.635Z,4.90
2018-10-01T02:13:18.697Z,5.72
2018-10-01T02:16:29.857Z,5.08
2018-10-01T02:19:41.470Z,4.08
2018-10-01T02:22:53.030Z,5.37
2018-10-01T02:26:04.934Z,4.17
2018-10-01T02:29:16.158Z,4.70
2018-10-01T02:32:27.861Z,5.70
2018-10-01T02:35:39.093Z,3.85
2018-10-01T02:38:50.986Z,5.15
2018-10-01T02:42:02.450Z,4.67
2018-10-01T02:45:13.644Z,4.10
2018-10-01T02:48:25.368Z,4.95
2018-10-01T02:51:41.412Z,6.25
2018-10-01T02:54:53.413Z,5.17
2018-10-01T02:58:05.279Z,3.77
2018-10-01T03:01:16.634Z,6.25
2018-10-01T03:04:28.750Z,5.58
2018-10-01T03:07:39.883Z,4.70
2018-10-01T03:10:51.364Z,4.67
2018-10-01T03:14:02.909Z,4.05
2018-10-01T03:17:14.058Z,4.58
2018-10-01T03:20:25.310Z,3.83
2018-10-01T03:23:37.069Z,5.55
2018-10-01T03:26:48.247Z,4.78
2018-10-01T03:30:00.090Z,4.05
2018-10-01T03:33:11.878Z,5.40
2018-10-01T03:36:23.335Z,5.40
2018-10-01T03:39:35.648Z,4.85
2018-10-01T03:42:46.990Z,4.78
2018-10-01T03:45:58.214Z,5.60
2018-10-01T03:49:10.071Z,5.95
2018-10-01T03:52:21.098Z,5.58
2018-10-01T03:55:32.622Z,3.95
2018-10-01T03:58:43.696Z,5.03
2018-10-01T04:01:54.936Z,4.00
2018-10-01T04:05:07.007Z,5.47
2018-10-01T04:08:18.902Z,4.95
2018-10-01T04:11:29.880Z,4.60
2018-10-01T04:14:40.908Z,4.95
2018-10-01T04:17:52.092Z,7.28
2018-10-01T04:21:03.410Z,4.55
2018-10-01T04:24:15.069Z,4.95
2018-10-01T04:27:26.578Z,4.83
2018-10-01T04:30:38.271Z,4.70
2018-10-01T04:33:50.103Z,5.00
2018-10-01T04:37:01.349Z,7.05
2018-10-01T04:40:13.209Z,5.05
2018-10-01T04:43:24.992Z,4.95
2018-10-01T04:46:37.904Z,5.75
2018-10-01T04:49:49.353Z,5.45
2018-10-01T04:53:01.268Z,5.67
2018-10-01T04:56:12.463Z,5.25
2018-10-01T04:59:23.876Z,6.60
2018-10-01T05:02:35.039Z,4.47
2018-10-01T05:05:46.191Z,5.28
2018-10-01T05:08:58.077Z,7.85
2018-10-01T05:12:09.229Z,5.22
2018-10-01T05:15:20.355Z,5.72
2018-10-01T05:18:31.595Z,6.78
2018-10-01T05:21:42.579Z,4.78
2018-10-01T05:24:53.982Z,5.65
2018-10-01T05:28:05.704Z,5.28
2018-10-01T05:31:17.488Z,4.72
2018-10-01T05:34:28.848Z,5.85
2018-10-01T05:37:40.664Z,5.75
2018-10-01T05:40:52.965Z,6.15
2018-10-01T05:44:05.176Z,4.42
2018-10-01T05:47:16.358Z,6.47
2018-10-01T05:50:27.765Z,5.97
2018-10-01T05:53:39.400Z,6.40
2018-10-01T05:56:51.189Z,5.75
2018-10-01T06:00:03.289Z,4.60
2018-10-01T06:03:14.485Z,4.58
2018-10-01T06:06:25.529Z,5.50
2018-10-01T06:09:37.290Z,4.65
2018-10-01T06:12:48.794Z,4.75
2018-10-01T06:15:59.839Z,6.15
2018-10-01T06:19:10.994Z,6.53
2018-10-01T06:22:22.338Z,5.42
2018-10-01T06:25:33.453Z,6.03
2018-10-01T06:28:44.600Z,7.33
2018-10-01T06:31:56.620Z,6.80
2018-10-01T06:35:07.775Z,7.40
2018-10-01T06:38:19.878Z,6.55
2018-10-01T06:41:31.352Z,5.95
2018-10-01T06:44:42.804Z,5.42
2018-10-01T06:47:54.581Z,8.03
2018-10-01T06:51:06.454Z,6.20
2018-10-01T06:54:18.062Z,5.80
2018-10-01T06:57:29.031Z,8.38
2018-10-01T07:00:41.338Z,6.75
2018-10-01T07:03:53.245Z,7.40
2018-10-01T07:07:05.652Z,5.67
2018-10-01T07:10:17.627Z,6.70
2018-10-01T07:13:36.305Z,6.05
2018-10-01T07:16:50.143Z,5.45
2018-10-01T07:20:03.540Z,3.77
2018-10-01T07:23:15.246Z,5.90
2018-10-01T07:26:26.439Z,4.90
2018-10-01T07:29:39.576Z,4.08
2018-10-01T07:32:51.607Z,4.83
2018-10-01T07:36:03.056Z,4.55
2018-10-01T07:39:15.400Z,3.55
2018-10-01T07:42:28.564Z,4.92
2018-10-01T07:45:41.398Z,6.17
2018-10-01T07:48:54.398Z,4.67
2018-10-01T07:52:06.205Z,6.15
2018-10-01T07:55:17.681Z,4.67
2018-10-01T07:58:29.585Z,6.05
2018-10-01T08:01:40.883Z,6.50
2018-10-01T08:04:51.960Z,3.27
2018-10-01T08:08:04.089Z,6.03
2018-10-01T08:11:14.996Z,6.03
2018-10-01T08:14:26.183Z,6.65
2018-10-01T08:17:38.002Z,6.10
2018-10-01T08:20:50.073Z,6.12
2018-10-01T08:24:02.216Z,7.55
2018-10-01T08:27:23.609Z,6.30
2018-10-01T08:30:35.590Z,4.62
2018-10-01T08:33:48.579Z,4.20
2018-10-01T08:37:00.637Z,8.60
2018-10-01T08:40:13.546Z,11.88
2018-10-01T08:43:25.696Z,7.12
2018-10-01T08:46:37.441Z,8.45
2018-10-01T08:49:52.438Z,9.95
2018-10-01T08:53:11.252Z,7.08
2018-10-01T08:56:22.842Z,6.50
2018-10-01T08:59:34.721Z,7.37
2018-10-01T09:02:45.951Z,8.58
2018-10-01T09:05:57.261Z,7.37
2018-10-01T09:09:11.075Z,10.98
2018-10-01T09:12:23.204Z,7.42
2018-10-01T09:15:34.515Z,8.40
2018-10-01T09:18:45.741Z,8.98
2018-10-01T09:21:57.938Z,8.83
2018-10-01T09:25:10.034Z,9.00
2018-10-01T09:28:22.300Z,8.40
2018-10-01T09:31:33.714Z,9.68
2018-10-01T09:34:45.906Z,7.22
2018-10-01T09:37:57.025Z,8.08
2018-10-01T09:41:08.538Z,10.45
2018-10-01T09:44:20.788Z,6.28
2018-10-01T09:47:32.617Z,8.38
2018-10-01T09:50:43.801Z,12.43
2018-10-01T09:53:55.122Z,10.45
2018-10-01T09:57:07.768Z,8.10
2018-10-01T10:00:25.650Z,7.75
2018-10-01T10:03:37.160Z,10.00
2018-10-01T10:06:48.501Z,9.90
2018-10-01T10:10:02.708Z,8.83
2018-10-01T10:13:16.584Z,11.83
2018-10-01T10:16:31.878Z,6.85
2018-10-01T10:23:30.537Z,10.35
2018-10-01T10:26:42.841Z,7.47
2018-10-01T10:29:58.165Z,6.05
2018-10-01T10:33:11.489Z,11.22
2018-10-01T10:40:07.941Z,10.58
2018-10-01T10:43:19.336Z,8.83
2018-10-01T10:46:33.077Z,8.60
2018-10-01T10:49:46.976Z,10.03
2018-10-01T10:56:43.242Z,7.60
2018-10-01T10:59:55.740Z,10.03
2018-10-01T11:03:07.579Z,12.30
2018-10-01T11:06:19.612Z,9.25
2018-10-01T11:09:31.720Z,8.80
2018-10-01T11:12:43.359Z,9.50
2018-10-01T11:15:57.332Z,9.68
2018-10-01T11:19:09.766Z,9.63
2018-10-01T11:22:21.905Z,9.45
2018-10-01T11:25:36.149Z,10.20
2018-10-01T11:28:56.811Z,11.53
2018-10-01T11:32:09.923Z,9.83
2018-10-01T11:35:23.399Z,9.93
2018-10-01T11:38:36.763Z,9.55
2018-10-01T11:41:54.046Z,13.88
2018-10-01T11:45:08.640Z,10.45
2018-10-01T11:48:21.233Z,10.50
2018-10-01T11:51:33.567Z,10.40
2018-10-01T11:54:45.718Z,10.00
2018-10-01T11:57:59.640Z,11.35
2018-10-01T12:01:13.800Z,6.05
2018-10-01T12:04:27.068Z,10.10
2018-10-01T12:07:40.080Z,8.13
2018-10-01T12:10:56.311Z,8.35
2018-10-01T12:14:11.123Z,7.20
2018-10-01T12:17:24.067Z,10.08
2018-10-01T12:20:36.058Z,7.87
2018-10-01T12:23:48.584Z,9.75
2018-10-01T12:27:00.226Z,8.53
2018-10-01T12:30:13.427Z,6.78
2018-10-01T12:33:25.069Z,8.08
2018-10-01T12:36:39.085Z,5.58
2018-10-01T12:39:50.839Z,6.22
2018-10-01T12:43:02.547Z,7.92
2018-10-01T12:46:14.278Z,6.80
2018-10-01T12:49:26.004Z,6.62
2018-10-01T12:52:37.789Z,4.67
2018-10-01T12:55:49.963Z,6.53
2018-10-01T12:59:02.348Z,7.17
2018-10-01T13:02:13.639Z,7.67
2018-10-01T13:05:25.291Z,5.97
2018-10-01T13:08:37.050Z,6.35
2018-10-01T13:11:48.510Z,8.78
2018-10-01T13:15:00.218Z,8.13
2018-10-01T13:18:12.162Z,8.03
2018-10-01T13:21:24.599Z,5.67
2018-10-01T13:24:35.733Z,5.28
2018-10-01T13:27:47.837Z,6.03
2018-10-01T13:30:59.490Z,5.97
2018-10-01T13:34:11.067Z,6.15
2018-10-01T13:37:23.175Z,5.95
2018-10-01T13:40:35.245Z,5.78
2018-10-01T13:43:47.121Z,4.50
2018-10-01T13:46:58.152Z,6.10
2018-10-01T13:50:09.580Z,7.17
2018-10-01T13:53:21.363Z,8.65
2018-10-01T13:56:33.287Z,8.13
2018-10-01T13:59:44.518Z,6.00
2018-10-01T14:02:56.268Z,9.78
2018-10-01T14:06:07.384Z,8.48
2018-10-01T14:09:19.173Z,6.45
2018-10-01T14:12:31.144Z,8.55
2018-10-01T14:15:42.234Z,7.03
2018-10-01T14:18:54.356Z,5.83
2018-10-01T14:22:06.486Z,6.90
2018-10-01T14:25:18.130Z,6.95
2018-10-01T14:28:29.851Z,7.47
2018-10-01T14:31:41.785Z,8.80
2018-10-01T14:34:52.906Z,8.00
2018-10-01T14:38:04.088Z,6.05
2018-10-01T14:41:15.452Z,7.37
2018-10-01T14:44:27.091Z,7.37
2018-10-01T14:47:38.095Z,6.00
2018-10-01T14:50:50.630Z,5.95
2018-10-01T14:54:03.790Z,5.62
2018-10-01T14:57:18.349Z,4.80
2018-10-01T15:00:32.789Z,6.75
2018-10-01T15:03:45.508Z,3.05
2018-10-01T15:06:59.920Z,5.60
2018-10-01T15:10:13.158Z,6.08
2018-10-01T15:13:26.389Z,5.17
2018-10-01T15:16:39.161Z,6.22
2018-10-01T15:19:52.973Z,6.00
2018-10-01T15:23:04.702Z,5.22
2018-10-01T15:26:16.730Z,7.28
2018-10-01T15:29:29.184Z,6.17
2018-10-01T15:32:40.566Z,6.65
2018-10-01T15:39:34.395Z,6.42
2018-10-01T15:42:46.205Z,5.75
2018-10-01T15:46:00.142Z,8.25
2018-10-01T15:52:56.286Z,7.17
2018-10-01T15:56:08.153Z,6.35
2018-10-01T15:59:34.467Z,6.97
2018-10-01T16:02:46.192Z,5.25
2018-10-01T16:05:58.124Z,6.80
2018-10-01T16:09:25.542Z,6.15
2018-10-01T16:12:36.807Z,7.58
2018-10-01T16:15:48.361Z,6.58
2018-10-01T16:19:00.292Z,7.42
2018-10-01T16:22:12.438Z,8.63
2018-10-01T16:25:24.967Z,7.47
2018-10-01T16:28:37.122Z,9.38
2018-10-01T16:31:49.980Z,11.40
2018-10-01T16:35:08.679Z,8.53
2018-10-01T16:38:21.653Z,6.75
2018-10-01T16:41:33.649Z,6.97
2018-10-01T16:44:45.523Z,7.80
2018-10-01T16:47:57.530Z,4.87
2018-10-01T16:51:12.915Z,5.62
2018-10-01T16:54:25.014Z,5.62
2018-10-01T16:57:36.546Z,8.25
2018-10-01T17:00:48.526Z,6.53
2018-10-01T17:04:01.133Z,7.33
2018-10-01T17:07:12.640Z,6.10
2018-10-01T17:10:23.864Z,7.37
2018-10-01T17:13:35.804Z,9.30
2018-10-01T17:16:48.583Z,7.35
2018-10-01T17:19:59.911Z,6.87
2018-10-01T17:23:11.263Z,6.72
2018-10-01T17:26:23.273Z,8.83
2018-10-01T17:29:34.844Z,11.93
2018-10-01T17:32:45.994Z,7.22
2018-10-01T17:35:58.538Z,7.03
2018-10-01T17:39:11.377Z,7.90
2018-10-01T17:42:23.068Z,6.85
2018-10-01T17:45:34.897Z,6.75
2018-10-01T17:48:46.765Z,11.33
2018-10-01T17:51:58.670Z,9.50
2018-10-01T17:55:10.390Z,8.30
2018-10-01T17:58:22.437Z,8.13
2018-10-01T18:01:34.445Z,9.08
2018-10-01T18:04:46.698Z,6.25
2018-10-01T18:07:58.711Z,7.78
2018-10-01T18:11:10.649Z,7.28
2018-10-01T18:14:22.356Z,3.45
2018-10-01T18:17:34.282Z,4.85
2018-10-01T18:20:45.832Z,4.20
2018-10-01T18:23:57.827Z,3.65
2018-10-01T18:27:09.783Z,2.30
2018-10-01T18:30:21.501Z,3.30
2018-10-01T18:33:33.392Z,2.80
2018-10-01T18:36:45.498Z,3.17
2018-10-01T18:39:57.459Z,4.15
2018-10-01T18:43:09.245Z,4.22
2018-10-01T18:46:22.003Z,4.05
2018-10-01T18:49:34.000Z,4.15
2018-10-01T18:52:47.505Z,4.00
2018-10-01T18:56:13.493Z,3.25
2018-10-01T18:59:25.476Z,3.60
2018-10-01T19:02:36.735Z,3.20
2018-10-01T19:05:49.604Z,2.55
2018-10-01T19:09:02.840Z,5.12
2018-10-01T19:12:14.647Z,3.58
2018-10-01T19:15:26.674Z,3.75
2018-10-01T19:18:39.310Z,3.77
2018-10-01T19:21:50.533Z,4.17
2018-10-01T19:25:02.248Z,4.45
2018-10-01T19:28:14.930Z,4.05
2018-10-01T19:31:26.491Z,3.42
2018-10-01T19:34:37.936Z,4.87
2018-10-01T19:37:49.598Z,2.83
2018-10-01T19:41:02.417Z,5.25
2018-10-01T19:44:30.541Z,2.80
2018-10-01T19:47:49.238Z,3.08
2018-10-01T19:51:01.308Z,4.10
2018-10-01T19:54:15.522Z,4.47
2018-10-01T19:57:27.061Z,2.83
2018-10-01T20:00:40.171Z,3.52
2018-10-01T20:03:52.791Z,3.62
2018-10-01T20:07:04.588Z,2.90
2018-10-01T20:10:18.543Z,3.15
2018-10-01T20:13:30.462Z,3.55
2018-10-01T20:16:41.848Z,2.37
2018-10-01T20:19:53.779Z,3.00
2018-10-01T20:23:04.918Z,3.80
2018-10-01T20:26:16.656Z,3.70
2018-10-01T20:29:29.811Z,3.85
2018-10-01T20:32:43.483Z,3.40
2018-10-01T20:35:54.828Z,2.85
2018-10-01T20:39:09.416Z,3.10
2018-10-01T20:42:20.713Z,3.12
2018-10-01T20:45:33.829Z,4.25
2018-10-01T20:48:45.861Z,3.30
2018-10-01T20:51:58.975Z,3.45
2018-10-01T20:55:10.920Z,4.05
2018-10-01T20:58:22.830Z,3.35
2018-10-01T21:01:34.163Z,2.60
2018-10-01T21:04:45.913Z,3.35
2018-10-01T21:07:58.014Z,3.20
2018-10-01T21:11:10.314Z,3.87
2018-10-01T21:14:22.294Z,4.05
2018-10-01T21:17:34.173Z,3.30
2018-10-01T21:20:47.688Z,3.00
2018-10-01T21:24:00.034Z,3.77
2018-10-01T21:27:11.219Z,5.25
2018-10-01T21:30:23.161Z,2.50
2018-10-01T21:33:34.315Z,3.90
2018-10-01T21:36:46.052Z,4.72
2018-10-01T21:40:05.421Z,3.58
2018-10-01T21:43:18.176Z,3.85
2018-10-01T21:46:29.900Z,4.90
2018-10-01T21:49:41.603Z,4.22
2018-10-01T21:52:53.526Z,3.95
2018-10-01T21:56:04.536Z,3.90
2018-10-01T21:59:15.588Z,2.85
2018-10-01T22:02:26.541Z,2.83
2018-10-01T22:05:39.967Z,3.67
2018-10-01T22:08:51.389Z,3.40
2018-10-01T22:12:03.455Z,2.42
2018-10-01T22:15:15.328Z,3.95
2018-10-01T22:18:26.922Z,2.58
2018-10-01T22:21:38.827Z,3.90
2018-10-01T22:24:50.174Z,3.58
2018-10-01T22:28:01.573Z,3.50
2018-10-01T22:31:13.432Z,3.52
2018-10-01T22:34:24.688Z,2.87
2018-10-01T22:37:36.424Z,3.65
2018-10-01T22:40:47.554Z,2.70
2018-10-01T22:43:59.558Z,3.62
2018-10-01T22:47:11.464Z,3.67
2018-10-01T22:50:23.167Z,3.58
2018-10-01T22:53:34.710Z,2.70
2018-10-01T22:56:45.896Z,3.52
2018-10-01T22:59:56.971Z,3.08
2018-10-01T23:03:08.981Z,2.92
2018-10-01T23:06:20.133Z,2.67
2018-10-01T23:09:31.608Z,3.08
2018-10-01T23:12:43.245Z,4.33
2018-10-01T23:15:54.331Z,3.55
2018-10-01T23:19:05.995Z,2.52
2018-10-01T23:22:17.590Z,4.37
2018-10-01T23:25:29.285Z,3.20
2018-10-01T23:28:41.201Z,3.15
2018-10-01T23:31:52.498Z,3.40
2018-10-01T23:35:05.179Z,2.72
2018-10-01T23:38:16.464Z,4.10
2018-10-01T23:41:28.194Z,2.58
2018-10-01T23:44:39.160Z,2.92
2018-10-01T23:47:51.435Z,3.70
2018-10-01T23:51:02.789Z,5.45
2018-10-01T23:54:13.857Z,4.00
2018-10-01T23:57:25.793Z,3.33
